Surfer-19001 — FAB5302 — position and weather

sailwx.info

Track history (hours):
 
Tides and Currents Weather Stations Pressure Air Temp Water Temp Dewpoint Dewpoint Depression Visibility Wind Speed Wind Dir Waves Ship Positions

Surfer-19001

Last reported at 2018-Feb-22 13:57 UTC. Time now 2018-Feb-23 04:30 UTC.
Position S 05°04' E 011°35'.

Length 19 m; draft 0.9 m.

Type: Ship. MMSI: 227211680.

Date/timePositionNaut miles runAvg speedWind from/ knotsBaromVisibWave heightAir tempDewpointWater temp
2018-Feb-22 13:57S 05°04' E 011°35'1224.8
2018-Feb-22 13:29S 05°13' E 011°27'612.2
2018-Feb-22 13:01S 05°17' E 011°23'1120.6
2018-Feb-22 12:30S 05°09' E 011°31'7 1.8
2018-Feb-22 08:45S 05°04' E 011°35'724.6
2018-Feb-22 08:29S 05°10' E 011°31'1224.2
2018-Feb-22 08:00S 05°19' E 011°24'4 8.4
2018-Feb-22 07:30S 05°16' E 011°27'1020.0
2018-Feb-22 07:00S 05°08' E 011°33'6 0.3
2018-Feb-21 09:54S 05°02' E 011°36'921.2
2018-Feb-21 09:28S 05°09' E 011°30'1020.9
2018-Feb-21 09:00S 05°17' E 011°24'2 4.9
2018-Feb-21 08:29S 05°19' E 011°24'1222.7
2018-Feb-21 07:58S 05°10' E 011°31'9 0.4
2018-Feb-20 10:11S 05°03' E 011°36'420.1
2018-Feb-20 09:59S 05°06' E 011°33'1019.4
2018-Feb-20 09:30S 05°13' E 011°27'611.2
2018-Feb-20 09:00S 05°17' E 011°23'0 0.6
2018-Feb-20 08:30S 05°17' E 011°24'1121.4
2018-Feb-20 08:00S 05°09' E 011°30'8 0.4
2018-Feb-19 10:10S 05°04' E 011°37'420.8
2018-Feb-19 09:59S 05°07' E 011°35'1020.3
2018-Feb-19 09:28S 05°15' E 011°28'613.6
2018-Feb-19 09:00S 05°20' E 011°24'510.3
2018-Feb-19 08:30S 05°16' E 011°27'1020.1
2018-Feb-19 08:00S 05°08' E 011°33'6 0.1
2018-Feb-17 10:27S 05°02' E 011°36'918.8
2018-Feb-17 10:00S 05°09' E 011°30'1020.2
2018-Feb-17 09:30S 05°16' E 011°24'1 1.9
2018-Feb-17 09:00S 05°17' E 011°23'3 6.2
2018-Feb-17 08:29S 05°16' E 011°26'920.0
2018-Feb-17 08:00S 05°10' E 011°34'8 0.4
2018-Feb-16 09:45S 05°02' E 011°37'521.3
2018-Feb-16 09:30S 05°06' E 011°33'1121.4
2018-Feb-16 08:58S 05°16' E 011°27'4 8.5
2018-Feb-16 08:28S 05°19' E 011°24'1021.0
2018-Feb-16 08:00S 05°11' E 011°30'11 0.6
2018-Feb-15 14:23S 05°02' E 011°36'1023.8
2018-Feb-15 13:59S 05°09' E 011°30'1122.2
2018-Feb-15 13:30S 05°17' E 011°23'0 0.1
2018-Feb-15 13:00S 05°17' E 011°23'1120.9
2018-Feb-15 12:28S 05°09' E 011°31'9 2.2
2018-Feb-15 08:33S 05°03' E 011°37'123.4
2018-Feb-15 08:30S 05°04' E 011°36'1122.4
2018-Feb-15 08:00S 05°12' E 011°29'4 0.1
2018-Feb-13 10:14S 05°08' E 011°30'522.6
2018-Feb-13 10:00S 05°12' E 011°27'610.9
2018-Feb-13 09:30S 05°17' E 011°23'1 1.0
2018-Feb-13 09:00S 05°17' E 011°23'510.2
2018-Feb-13 08:28S 05°13' E 011°27'  
Track history (hours):
 
Tides and Currents Weather Stations Pressure Air Temp Water Temp Dewpoint Dewpoint Depression Visibility Wind Speed Wind Dir Waves Ship Positions

Surfer-19001

Last reported at 2018-Feb-22 13:57 UTC. Time now 2018-Feb-23 04:30 UTC.
Position S 05°04' E 011°35'.

Length 19 m; draft 0.9 m.

Type: Ship. MMSI: 227211680.

Date/timePositionNaut miles runAvg speedWind from/ knotsBaromVisibWave heightAir tempDewpointWater temp
2018-Feb-22 13:57S 05°04' E 011°35'1224.8
2018-Feb-22 13:29S 05°13' E 011°27'612.2
2018-Feb-22 13:01S 05°17' E 011°23'1120.6
2018-Feb-22 12:30S 05°09' E 011°31'7 1.8
2018-Feb-22 08:45S 05°04' E 011°35'724.6
2018-Feb-22 08:29S 05°10' E 011°31'1224.2
2018-Feb-22 08:00S 05°19' E 011°24'4 8.4
2018-Feb-22 07:30S 05°16' E 011°27'1020.0
2018-Feb-22 07:00S 05°08' E 011°33'6 0.3
2018-Feb-21 09:54S 05°02' E 011°36'921.2
2018-Feb-21 09:28S 05°09' E 011°30'1020.9
2018-Feb-21 09:00S 05°17' E 011°24'2 4.9
2018-Feb-21 08:29S 05°19' E 011°24'1222.7
2018-Feb-21 07:58S 05°10' E 011°31'9 0.4
2018-Feb-20 10:11S 05°03' E 011°36'420.1
2018-Feb-20 09:59S 05°06' E 011°33'1019.4
2018-Feb-20 09:30S 05°13' E 011°27'611.2
2018-Feb-20 09:00S 05°17' E 011°23'0 0.6
2018-Feb-20 08:30S 05°17' E 011°24'1121.4
2018-Feb-20 08:00S 05°09' E 011°30'8 0.4
2018-Feb-19 10:10S 05°04' E 011°37'420.8
2018-Feb-19 09:59S 05°07' E 011°35'1020.3
2018-Feb-19 09:28S 05°15' E 011°28'613.6
2018-Feb-19 09:00S 05°20' E 011°24'510.3
2018-Feb-19 08:30S 05°16' E 011°27'1020.1
2018-Feb-19 08:00S 05°08' E 011°33'6 0.1
2018-Feb-17 10:27S 05°02' E 011°36'918.8
2018-Feb-17 10:00S 05°09' E 011°30'1020.2
2018-Feb-17 09:30S 05°16' E 011°24'1 1.9
2018-Feb-17 09:00S 05°17' E 011°23'3 6.2
2018-Feb-17 08:29S 05°16' E 011°26'920.0
2018-Feb-17 08:00S 05°10' E 011°34'8 0.4
2018-Feb-16 09:45S 05°02' E 011°37'521.3
2018-Feb-16 09:30S 05°06' E 011°33'1121.4
2018-Feb-16 08:58S 05°16' E 011°27'4 8.5
2018-Feb-16 08:28S 05°19' E 011°24'1021.0
2018-Feb-16 08:00S 05°11' E 011°30'11 0.6
2018-Feb-15 14:23S 05°02' E 011°36'1023.8
2018-Feb-15 13:59S 05°09' E 011°30'1122.2
2018-Feb-15 13:30S 05°17' E 011°23'0 0.1
2018-Feb-15 13:00S 05°17' E 011°23'1120.9
2018-Feb-15 12:28S 05°09' E 011°31'9 2.2
2018-Feb-15 08:33S 05°03' E 011°37'123.4
2018-Feb-15 08:30S 05°04' E 011°36'1122.4
2018-Feb-15 08:00S 05°12' E 011°29'4 0.1
2018-Feb-13 10:14S 05°08' E 011°30'522.6
2018-Feb-13 10:00S 05°12' E 011°27'610.9
2018-Feb-13 09:30S 05°17' E 011°23'1 1.0
2018-Feb-13 09:00S 05°17' E 011°23'510.2
2018-Feb-13 08:28S 05°13' E 011°27'  

Dump ship's entire track history